Latest Weather Observations for Biloela

IDQ60801

Issued at 6:02 pm EST Friday 30 September 2016 (issued every 30 minutes, with the page automatically refreshed every 10 minutes)

About weather observations | Map of weather stations | Latest weather observations for QLD | Other Formats
Station Details ID: 039089 Name: THANGOOL AIRPORT Lat: -24.49 Lon: 150.57 Height: 193.1 m
Data from the previous 72 hours. | See also: Recent months at Biloela
Date/Time
EST
Temp
°C
App
Temp
°C
Dew
Point
°C
Rel
Hum
%
Delta-T
°C
Wind Press
QNH
hPa
Press
MSL
hPa
Rain since
9am
mm
Dir  Spd
km/h
Gust
km/h
Spd
kts
Gust
kts
30/06:00pm 21.1 17.3 3.8 32 8.4 WNW 13 17 7 9 1009.5 1009.0 0.2
30/05:30pm 23.5 19.2 3.4 27 9.9 NW 15 19 8 10 1009.1 - 0.2
30/05:00pm 24.9 19.5 2.4 23 10.9 NW 20 26 11 14 1008.8 - 0.2
30/04:30pm 25.5 19.7 2.2 22 11.3 WNW 22 37 12 20 1008.6 - 0.2
30/04:00pm 25.5 20.5 3.5 24 10.9 NW 19 26 10 14 1008.3 - 0.2
30/03:30pm 25.5 20.8 6.2 29 10.1 NW 20 28 11 15 1008.1 - 0.2
30/03:00pm 25.2 20.8 4.9 27 10.4 NW 17 30 9 16 1008.0 1007.5 0.2
30/02:30pm 24.9 19.0 5.7 29 9.9 NW 26 39 14 21 1008.3 - 0.2
30/02:00pm 24.4 19.3 4.2 27 10.1 WNW 20 30 11 16 1008.7 - 0.2
30/01:30pm 24.2 20.4 6.0 31 9.4 NW 15 22 8 12 1009.0 - 0.2
30/01:00pm 24.0 19.2 5.8 31 9.3 NW 20 32 11 17 1009.5 - 0.2
30/12:30pm 22.7 17.8 4.2 30 9.1 NW 19 32 10 17 1010.0 - 0.2
30/12:00pm 23.3 18.7 6.6 34 8.7 W 20 28 11 15 1010.6 1010.1 0.2
30/11:30am 22.6 19.7 8.0 39 7.7 W 13 30 7 16 1010.8 - 0.2
30/11:00am 21.6 18.1 5.5 35 8.1 WNW 13 20 7 11 1011.1 - 0.2
30/10:30am 21.1 16.9 5.5 36 7.8 W 17 20 9 11 1011.2 - 0.2
30/10:00am 20.7 17.9 5.1 36 7.7 WSW 9 17 5 9 1011.4 - 0.2
30/09:30am 20.3 17.0 6.6 41 7.0 SW 13 20 7 11 1011.5 - 0.0
30/09:00am 19.6 15.9 6.3 42 6.7 WSW 15 20 8 11 1011.5 1011.0 16.6
30/08:30am 19.2 16.8 8.5 50 5.6 SW 11 20 6 11 1011.5 - 16.6
30/08:00am 18.3 15.4 8.3 52 5.2 SSW 13 20 7 11 1011.1 - 16.6
30/07:30am 17.3 13.7 8.2 55 4.7 SSW 17 28 9 15 1010.8 - 16.6
30/07:00am 19.0 18.6 15.3 79 2.2 W 11 13 6 7 1010.2 - 16.6
30/06:30am 17.9 19.3 15.5 86 1.4 WSW 2 7 1 4 1009.7 - 16.6
30/06:00am 18.1 18.8 16.1 88 1.2 WNW 7 11 4 6 1009.3 1008.8 16.6
30/05:30am 18.4 18.4 16.2 87 1.3 WNW 11 17 6 9 1009.0 - 16.6
30/05:00am 19.1 18.8 16.5 85 1.6 WNW 13 20 7 11 1008.3 - 16.6
30/04:36am 19.9 20.5 18.7 93 0.8 WNW 13 22 7 12 1008.0 - 16.6
30/04:30am 19.9 20.8 19.2 96 0.4 NW 13 15 7 8 1007.8 - 16.6
30/04:24am 20.0 20.5 19.3 96 0.4 WNW 15 30 8 16 1007.6 - 16.6
30/04:06am 20.1 20.0 19.6 97 0.3 NNW 19 28 10 15 1007.3 - 16.4
30/04:00am 20.2 20.9 19.7 97 0.3 NNW 15 22 8 12 1007.1 - 14.2
30/03:30am 19.8 21.9 19.3 97 0.3 NW 7 11 4 6 1007.1 - 14.2
30/03:00am 19.6 21.8 19.1 97 0.3 NW 6 7 3 4 1007.4 1006.8 14.2
30/02:30am 19.6 21.8 19.1 97 0.3 NW 6 9 3 5 1007.8 - 14.2
30/02:20am 19.4 21.3 18.9 97 0.3 WNW 7 9 4 5 1008.0 - 14.2
30/02:06am 19.3 21.7 18.8 97 0.3 NNW 4 7 2 4 1008.0 - 14.2
30/02:00am 19.2 22.2 18.5 96 0.4 CALM 0 6 0 3 1007.9 - 14.2
30/01:30am 19.3 22.4 18.6 96 0.4 CALM 0 0 0 0 1008.3 - 14.2
30/01:00am 19.4 21.8 18.7 96 0.4 NNW 4 7 2 4 1008.4 - 14.2
30/12:31am 19.1 20.8 18.4 96 0.4 W 7 9 4 5 1008.7 - 14.2
30/12:30am 19.2 20.9 18.5 96 0.4 W 7 9 4 5 1008.7 - 14.2
30/12:00am 19.0 20.2 18.2 95 0.5 NNW 9 11 5 6 1009.1 1008.6 14.2
 
Date/Time
EST
Temp
°C
App
Temp
°C
Dew
Point
°C
Rel
Hum
%
Delta-T
°C
Wind Press
QNH
hPa
Press
MSL
hPa
Rain since
9am
mm
Dir  Spd
km/h
Gust
km/h
Spd
kts
Gust
kts
29/11:59pm 19.0 20.2 18.2 95 0.5 NNW 9 13 5 7 1009.1 - 14.2
29/11:46pm 19.2 20.9 18.4 95 0.5 NNW 7 11 4 6 1009.2 - 14.2
29/11:30pm 19.3 20.2 18.5 95 0.5 NNW 11 13 6 7 1009.2 - 14.2
29/11:29pm 19.3 20.6 18.5 95 0.5 N 9 13 5 7 1009.1 - 14.2
29/11:28pm 19.3 20.6 18.5 95 0.5 N 9 13 5 7 1009.1 - 14.2
29/11:18pm 19.3 21.1 18.8 97 0.3 N 7 9 4 5 1009.1 - 14.2
29/11:11pm 19.4 21.9 19.1 98 0.2 WNW 4 9 2 5 1009.3 - 14.2
29/11:00pm 19.4 20.2 19.1 98 0.2 NNW 13 20 7 11 1009.5 - 14.2
29/10:58pm 19.2 19.5 18.7 97 0.3 N 15 20 8 11 1009.4 - 14.0
29/10:42pm 18.5 19.6 18.0 97 0.3 SW 9 11 5 6 1008.8 - 12.6
29/10:30pm 18.4 20.4 17.8 96 0.4 SW 4 11 2 6 1009.0 - 12.4
29/10:21pm 18.3 21.0 17.7 96 0.4 CALM 0 0 0 0 1008.9 - 11.8
29/10:00pm 18.3 19.7 17.7 96 0.4 SW 7 9 4 5 1008.9 - 11.2
29/09:30pm 18.3 20.5 17.5 95 0.5 SSW 2 7 1 4 1009.2 - 11.2
29/09:00pm 18.2 20.8 17.4 95 0.5 CALM 0 6 0 3 1009.3 1008.8 11.2
29/08:30pm 18.5 20.8 17.7 95 0.5 S 2 11 1 6 1009.3 - 11.2
29/08:00pm 18.5 21.1 17.5 94 0.6 CALM 0 0 0 0 1009.1 - 11.2
29/07:30pm 18.4 21.0 17.4 94 0.6 CALM 0 0 0 0 1008.9 - 11.2
29/07:00pm 18.5 19.9 17.3 93 0.7 ENE 6 7 3 4 1008.8 - 11.2
29/06:30pm 18.8 19.7 17.6 93 0.7 ENE 9 11 5 6 1008.4 - 11.2
29/06:00pm 18.9 19.9 17.7 93 0.7 E 9 13 5 7 1008.1 1007.6 11.2
29/05:30pm 18.9 20.3 17.9 94 0.6 NNE 7 9 4 5 1008.1 - 11.2
29/05:00pm 18.9 20.4 17.7 93 0.7 NNW 6 7 3 4 1008.4 - 11.0
29/04:49pm 18.9 19.9 17.7 93 0.7 WNW 9 13 5 7 1008.1 - 10.8
29/04:32pm 18.9 19.5 17.7 93 0.7 WSW 11 15 6 8 1008.3 - 10.4
29/04:30pm 19.0 20.0 17.8 93 0.7 WSW 9 15 5 8 1008.3 - 10.0
29/04:25pm 19.0 20.4 17.8 93 0.7 W 7 11 4 6 1008.2 - 9.2
29/04:00pm 19.4 21.6 17.5 89 1.2 NNW 2 9 1 5 1008.1 - 7.0
29/03:30pm 19.6 20.4 16.4 82 1.9 N 7 11 4 6 1007.7 - 3.4
29/03:23pm 20.0 20.7 17.0 83 1.8 N 9 13 5 7 1007.6 - 2.8
29/03:00pm 21.0 21.9 16.6 76 2.7 NE 7 11 4 6 1007.4 1006.8 1.0
29/02:30pm 20.9 21.5 15.2 70 3.4 NW 6 9 3 5 1007.9 - 0.8
29/02:00pm 23.0 21.9 13.2 54 5.7 WNW 11 15 6 8 1007.9 - 0.0
29/01:30pm 23.6 21.8 12.0 48 6.6 NW 13 17 7 9 1008.5 - 0.0
29/01:00pm 24.0 20.9 11.7 46 7.0 N 19 26 10 14 1008.6 - 0.0
29/12:30pm 24.7 22.3 12.6 47 7.0 NNW 17 22 9 12 1009.3 - 0.0
29/12:00pm 24.0 21.4 12.0 47 6.9 N 17 22 9 12 1009.9 1009.4 0.0
29/11:30am 23.7 20.3 11.4 46 7.0 N 20 28 11 15 1010.4 - 0.0
29/11:00am 23.7 21.1 10.7 44 7.3 NNW 15 20 8 11 1011.0 - 0.0
29/10:30am 24.1 19.8 9.3 39 8.1 NW 22 30 12 16 1011.1 - 0.0
29/10:00am 23.6 19.0 9.6 41 7.7 N 24 33 13 18 1011.0 - 0.0
29/09:30am 23.2 18.7 8.5 39 7.9 N 22 32 12 17 1011.2 - 0.0
29/09:00am 23.0 18.0 7.9 38 8.0 NNW 24 33 13 18 1011.3 1010.8 0.0
29/08:30am 23.4 19.3 8.7 39 7.9 N 20 28 11 15 1010.9 - 0.0
29/08:00am 22.0 18.5 8.9 43 7.0 N 17 22 9 12 1011.2 - 0.0
29/07:30am 20.0 18.5 9.0 49 5.8 NNW 7 11 4 6 1010.9 - 0.0
29/07:00am 16.9 16.8 9.6 62 3.9 CALM 0 0 0 0 1010.7 - 0.0
29/06:30am 15.7 15.6 9.6 67 3.2 CALM 0 0 0 0 1010.2 - 0.0
29/06:00am 15.6 14.0 8.1 61 3.8 E 6 9 3 5 1009.9 1009.4 0.0
29/05:30am 15.6 14.6 8.8 64 3.5 NE 4 9 2 5 1010.5 - 0.0
29/05:00am 15.8 15.7 9.5 66 3.3 CALM 0 6 0 3 1010.6 - 0.0
29/04:30am 16.0 14.7 9.2 64 3.5 NW 6 11 3 6 1011.1 - 0.0
29/04:00am 15.5 15.5 9.8 69 3.0 CALM 0 0 0 0 1010.6 - 0.0
29/03:30am 15.9 15.7 9.1 64 3.5 CALM 0 0 0 0 1010.6 - 0.0
29/03:00am 15.7 15.3 8.2 61 3.8 CALM 0 0 0 0 1011.1 1010.6 0.0
29/02:30am 16.3 15.8 8.0 58 4.2 CALM 0 0 0 0 1011.0 - 0.0
29/02:00am 16.1 15.0 8.6 61 3.9 W 4 9 2 5 1011.4 - 0.0
29/01:30am 16.0 15.2 8.2 60 4.0 SE 2 9 1 5 1011.5 - 0.0
29/01:00am 16.1 15.6 7.8 58 4.2 CALM 0 0 0 0 1012.1 - 0.0
29/12:30am 16.4 15.0 7.3 55 4.6 SE 4 9 2 5 1012.3 - 0.0
29/12:00am 17.3 16.6 6.8 50 5.3 CALM 0 0 0 0 1013.2 1012.7 0.0
 
Date/Time
EST
Temp
°C
App
Temp
°C
Dew
Point
°C
Rel
Hum
%
Delta-T
°C
Wind Press
QNH
hPa
Press
MSL
hPa
Rain since
9am
mm
Dir  Spd
km/h
Gust
km/h
Spd
kts
Gust
kts
28/11:30pm 17.7 16.4 7.7 52 5.1 NNW 4 7 2 4 1013.6 - 0.0
28/11:00pm 17.8 15.7 6.7 48 5.6 NNW 7 9 4 5 1013.5 - 0.0
28/10:30pm 17.7 15.1 5.9 46 5.8 N 9 11 5 6 1013.6 - 0.0
28/10:00pm 17.8 15.6 6.3 47 5.7 WNW 7 11 4 6 1013.7 - 0.0
28/09:30pm 17.9 16.2 6.1 46 5.9 NNW 4 7 2 4 1013.0 - 0.0
28/09:00pm 18.5 16.3 6.0 44 6.2 W 7 11 4 6 1013.3 1012.8 0.0
28/08:30pm 21.2 18.6 5.9 37 7.7 NNE 9 19 5 10 1012.6 - 0.0
28/08:00pm 21.3 17.9 6.0 37 7.7 NE 13 20 7 11 1011.9 - 0.0
28/07:30pm 22.1 18.5 5.1 33 8.5 NNE 13 19 7 10 1012.1 - 0.0
28/07:00pm 23.0 18.4 5.4 32 8.9 NNE 19 28 10 15 1011.5 - 0.0
28/06:30pm 23.0 19.6 4.0 29 9.4 NNE 11 15 6 8 1011.5 - 0.0
28/06:00pm 24.0 20.6 -0.3 20 11.1 NW 7 9 4 5 1011.1 1010.6 0.0
28/05:30pm 26.8 23.1 -0.3 17 12.7 W 9 13 5 7 1010.9 - 0.0
28/05:00pm 27.9 23.7 -1.1 15 13.5 WNW 11 15 6 8 1010.7 - 0.0
28/04:30pm 28.2 23.8 -2.8 13 14.0 WNW 11 15 6 8 1010.5 - 0.0
28/04:00pm 29.0 24.4 -1.2 14 14.1 W 13 17 7 9 1010.5 - 0.0
28/03:30pm 28.5 25.5 1.9 18 13.1 SSW 7 11 4 6 1010.3 - 0.0
28/03:00pm 29.2 25.2 0.8 16 13.8 W 11 19 6 10 1010.8 1010.3 0.0
28/02:30pm 28.6 25.7 1.2 17 13.3 W 6 13 3 7 1011.1 - 0.0
28/02:00pm 28.2 25.0 0.9 17 13.2 NW 7 13 4 7 1011.7 - 0.0
28/01:30pm 27.8 24.6 2.8 20 12.5 NNW 9 20 5 11 1012.3 - 0.0
28/01:00pm 27.7 24.1 2.7 20 12.4 ENE 11 15 6 8 1012.8 - 0.0
28/12:30pm 27.1 24.1 2.2 20 12.2 W 7 13 4 7 1013.5 - 0.0
28/12:00pm 26.2 22.7 3.4 23 11.4 S 11 17 6 9 1014.2 1013.7 0.0
28/11:30am 25.6 22.3 2.3 22 11.3 NE 9 15 5 8 1014.9 - 0.0
28/11:00am 25.6 22.3 2.3 22 11.3 ENE 9 17 5 9 1015.4 - 0.0
28/10:30am 25.2 22.5 3.8 25 10.7 SSE 7 13 4 7 1015.8 - 0.0
28/10:00am 24.3 21.3 1.9 23 10.7 WNW 7 13 4 7 1016.1 - 0.0
28/09:30am 23.1 19.8 2.6 26 9.9 NW 9 15 5 8 1016.6 - 0.0
28/09:00am 21.8 20.7 5.3 34 8.3 CALM 0 6 0 3 1016.8 1016.4 0.0
28/08:30am 18.8 17.6 4.6 39 6.9 CALM 0 0 0 0 1016.8 - 0.0
28/08:00am 17.3 15.5 5.3 45 5.8 ESE 4 7 2 4 1016.6 - 0.0
28/07:30am 14.3 13.2 5.1 54 4.4 CALM 0 6 0 3 1016.5 - 0.0
28/07:00am 11.1 9.2 5.0 66 2.8 E 4 7 2 4 1016.1 - 0.0
28/06:30am 9.3 6.9 5.1 75 1.9 E 7 9 4 5 1015.6 - 0.0
28/06:00am 6.7 4.5 3.5 80 1.4 E 4 7 2 4 1015.5 1015.0 0.0
28/05:30am 7.6 4.9 3.6 76 1.7 ENE 7 9 4 5 1015.2 - 0.0
28/05:00am 7.8 4.8 4.2 78 1.6 E 9 9 5 5 1015.0 - 0.0
28/04:30am 7.6 4.9 3.6 76 1.7 E 7 11 4 6 1014.7 - 0.0
28/04:00am 9.0 6.4 4.2 72 2.1 E 7 9 4 5 1014.5 - 0.0
28/03:30am 9.3 6.4 4.7 73 2.1 E 9 11 5 6 1014.3 - 0.0
28/03:00am 8.6 6.3 4.6 76 1.8 ESE 6 7 3 4 1014.2 1013.7 0.0
28/02:30am 8.6 5.9 3.8 72 2.1 E 7 7 4 4 1014.3 - 0.0
28/02:00am 9.7 7.2 4.5 70 2.3 E 7 9 4 5 1014.5 - 0.0
28/01:30am 9.2 6.8 4.2 71 2.2 E 6 9 3 5 1014.5 - 0.0
28/01:00am 10.6 9.3 4.1 64 2.9 CALM 0 6 0 3 1015.1 - 0.0
28/12:30am 12.5 9.6 4.5 58 3.7 E 9 11 5 6 1015.1 - 0.0
28/12:00am 12.3 9.5 5.0 61 3.4 E 9 9 5 5 1015.5 1015.0 0.0
 
Date/Time
EST
Temp
°C
App
Temp
°C
Dew
Point
°C
Rel
Hum
%
Delta-T
°C
Wind Press
QNH
hPa
Press
MSL
hPa
Rain since
9am
mm
Dir  Spd
km/h
Gust
km/h
Spd
kts
Gust
kts
27/11:30pm 12.7 10.5 5.1 60 3.6 E 6 9 3 5 1015.5 - 0.0
27/11:00pm 13.6 11.1 4.7 55 4.2 E 7 9 4 5 1015.7 - 0.0
27/10:30pm 13.1 10.2 4.8 57 3.9 E 9 9 5 5 1015.7 - 0.0
27/10:00pm 15.3 13.8 4.9 50 4.9 ESE 2 6 1 3 1016.0 - 0.0
27/09:30pm 14.4 12.8 6.3 58 3.9 ESE 4 7 2 4 1015.8 - 0.0
27/09:00pm 15.9 13.9 4.6 47 5.4 S 4 7 2 4 1016.3 1015.8 0.0
27/08:30pm 16.5 15.4 5.2 47 5.4 CALM 0 0 0 0 1015.9 - 0.0
27/08:00pm 17.1 15.8 4.1 42 6.2 CALM 0 0 0 0 1015.7 - 0.0
27/07:30pm 17.7 16.5 4.6 42 6.3 CALM 0 0 0 0 1015.5 - 0.0
27/07:00pm 18.2 17.1 5.1 42 6.4 CALM 0 0 0 0 1015.4 - 0.0
27/06:30pm 18.4 16.5 3.1 36 7.2 SSW 2 7 1 4 1015.1 - 0.0

Other Formats:

Comma delimited format used in spreadsheet applications
http://www.bom.gov.au/fwo/IDQ60801/IDQ60801.94376.axf

JavaScript Object Notation format (JSON) in row-major order
http://www.bom.gov.au/fwo/IDQ60801/IDQ60801.94376.json